createdAt,value
2019-02-18T00:01:19.505Z,2.01
2019-02-18T00:03:50.116Z,1.93
2019-02-18T00:06:19.937Z,1.82
2019-02-18T00:08:50.831Z,1.81
2019-02-18T00:11:20.475Z,1.80
2019-02-18T00:13:50.211Z,1.65
2019-02-18T00:16:22.866Z,1.24
2019-02-18T00:18:53.475Z,1.06
2019-02-18T00:21:23.833Z,0.93
2019-02-18T00:23:55.155Z,0.87
2019-02-18T00:26:24.769Z,0.83
2019-02-18T00:28:56.134Z,0.78
2019-02-18T00:31:25.768Z,0.92
2019-02-18T00:33:58.574Z,1.01
2019-02-18T00:36:28.190Z,1.10
2019-02-18T00:38:59.570Z,1.10
2019-02-18T00:41:29.618Z,1.11
2019-02-18T00:44:02.278Z,1.04
2019-02-18T00:46:33.149Z,0.98
2019-02-18T00:49:05.727Z,0.99
2019-02-18T00:51:36.076Z,0.88
2019-02-18T00:54:05.159Z,0.95
2019-02-18T00:56:35.920Z,1.02
2019-02-18T00:59:07.469Z,1.03
2019-02-18T01:01:38.805Z,1.09
2019-02-18T01:04:08.638Z,1.17
2019-02-18T01:06:36.892Z,1.25
2019-02-18T01:09:06.635Z,1.22
2019-02-18T01:11:36.536Z,1.28
2019-02-18T01:14:08.545Z,1.23
2019-02-18T01:16:39.887Z,0.92
2019-02-18T01:19:10.198Z,0.92
2019-02-18T01:21:40.999Z,0.70
2019-02-18T01:24:10.760Z,0.66
2019-02-18T01:26:40.927Z,0.65
2019-02-18T01:29:12.850Z,0.60
2019-02-18T01:31:44.663Z,0.51
2019-02-18T01:34:14.365Z,0.46
2019-02-18T01:36:45.742Z,0.37
2019-02-18T01:39:15.365Z,0.38
2019-02-18T01:41:45.990Z,0.32
2019-02-18T01:44:15.849Z,0.41
2019-02-18T01:46:46.629Z,0.47
2019-02-18T01:49:17.066Z,0.48
2019-02-18T01:51:49.806Z,0.42
2019-02-18T01:54:19.659Z,0.42
2019-02-18T01:56:49.284Z,0.38
2019-02-18T01:59:20.654Z,0.43
2019-02-18T02:01:51.434Z,0.42
2019-02-18T02:04:22.798Z,0.27
2019-02-18T02:06:53.362Z,0.23
2019-02-18T02:09:23.612Z,0.21
2019-02-18T02:11:53.581Z,0.21
2019-02-18T02:14:23.635Z,0.19
2019-02-18T02:16:54.725Z,0.19
2019-02-18T02:19:24.394Z,0.22
2019-02-18T02:21:55.725Z,0.28
2019-02-18T02:24:27.090Z,0.33
2019-02-18T02:26:57.519Z,0.27
2019-02-18T02:29:26.594Z,0.18
2019-02-18T02:31:57.204Z,0.11
2019-02-18T02:34:27.491Z,0.14
2019-02-18T02:36:58.357Z,0.14
2019-02-18T02:39:29.650Z,0.15
2019-02-18T02:42:00.433Z,0.13
2019-02-18T02:44:30.850Z,0.12
2019-02-18T02:47:02.916Z,0.10
2019-02-18T02:49:32.544Z,0.11
2019-02-18T02:52:07.438Z,0.09
2019-02-18T02:54:37.457Z,0.15
2019-02-18T02:57:07.105Z,0.14
2019-02-18T02:59:38.352Z,0.10
2019-02-18T03:02:08.199Z,0.05
2019-02-18T03:04:39.542Z,-0.13
2019-02-18T03:07:09.233Z,-0.09
2019-02-18T03:09:39.248Z,-0.08
2019-02-18T03:12:09.647Z,-0.06
2019-02-18T03:14:40.472Z,-0.10
2019-02-18T03:17:11.827Z,-0.27
2019-02-18T03:19:41.442Z,-0.25
2019-02-18T03:22:11.082Z,-0.25
2019-02-18T03:24:44.338Z,-0.24
2019-02-18T03:27:15.715Z,-0.34
2019-02-18T03:30:06.934Z,-0.43
2019-02-18T03:32:39.901Z,-0.43
2019-02-18T03:35:13.871Z,-0.38
2019-02-18T03:37:44.661Z,-0.41
2019-02-18T03:40:15.446Z,-0.47
2019-02-18T03:42:48.592Z,-0.44
2019-02-18T03:45:19.151Z,-0.49
2019-02-18T03:47:50.560Z,-0.44
2019-02-18T03:50:21.143Z,-0.48
2019-02-18T03:52:51.805Z,-0.47
2019-02-18T03:55:21.638Z,-0.50
2019-02-18T03:57:51.353Z,-0.44
2019-02-18T04:00:21.154Z,-0.41
2019-02-18T04:02:51.587Z,-0.35
2019-02-18T04:05:21.420Z,-0.41
2019-02-18T04:07:52.209Z,-0.42
2019-02-18T04:10:23.616Z,-0.39
2019-02-18T04:12:54.675Z,-0.43
2019-02-18T04:15:26.006Z,-0.42
2019-02-18T04:17:56.376Z,-0.43
2019-02-18T04:20:26.934Z,-0.44
2019-02-18T04:22:57.354Z,-0.45
2019-02-18T04:25:28.781Z,-0.43
2019-02-18T04:27:59.202Z,-0.50
2019-02-18T04:30:28.268Z,-0.57
2019-02-18T04:33:01.521Z,-0.66
2019-02-18T04:35:34.372Z,-0.74
2019-02-18T04:38:06.835Z,-0.72
2019-02-18T04:40:38.175Z,-0.66
2019-02-18T04:43:09.488Z,-0.67
2019-02-18T04:45:39.871Z,-0.62
2019-02-18T04:48:10.692Z,-0.65
2019-02-18T04:50:40.373Z,-0.55
2019-02-18T04:53:11.282Z,-0.54
2019-02-18T04:55:41.126Z,-0.53
2019-02-18T04:58:12.532Z,-0.52
2019-02-18T05:00:42.334Z,-0.45
2019-02-18T05:03:12.150Z,-0.41
2019-02-18T05:05:43.473Z,-0.23
2019-02-18T05:08:15.351Z,-0.26
2019-02-18T05:10:45.015Z,-0.39
2019-02-18T05:13:15.423Z,-0.41
2019-02-18T05:15:46.263Z,-0.54
2019-02-18T05:18:16.403Z,-0.62
2019-02-18T05:20:46.216Z,-0.82
2019-02-18T05:23:16.095Z,-0.81
2019-02-18T05:25:45.925Z,-0.96
2019-02-18T05:28:15.061Z,-1.01
2019-02-18T05:30:45.638Z,-1.03
2019-02-18T05:33:16.886Z,-0.92
2019-02-18T05:35:48.307Z,-0.83
2019-02-18T05:38:17.901Z,-0.88
2019-02-18T05:40:50.771Z,-0.88
2019-02-18T05:43:22.100Z,-0.79
2019-02-18T05:45:53.468Z,-0.67
2019-02-18T05:48:23.300Z,-0.65
2019-02-18T05:50:53.904Z,-0.61
2019-02-18T05:53:23.745Z,-0.64
2019-02-18T05:55:54.752Z,-0.79
2019-02-18T05:58:24.548Z,-0.79
2019-02-18T06:00:54.985Z,-0.81
2019-02-18T06:03:26.346Z,-0.75
2019-02-18T06:05:57.718Z,-0.80
2019-02-18T06:08:28.142Z,-0.87
2019-02-18T06:10:58.610Z,-0.93
2019-02-18T06:13:28.425Z,-0.91
2019-02-18T06:15:58.319Z,-1.00
2019-02-18T06:18:27.287Z,-0.96
2019-02-18T06:20:57.908Z,-0.87
2019-02-18T06:23:30.025Z,-0.82
2019-02-18T06:26:05.824Z,-0.68
2019-02-18T06:28:37.140Z,-0.54
2019-02-18T06:31:07.177Z,-0.57
2019-02-18T06:33:37.000Z,-0.56
2019-02-18T06:36:05.450Z,-0.62
2019-02-18T06:38:36.215Z,-0.57
2019-02-18T06:41:07.951Z,-0.49
2019-02-18T06:43:39.207Z,-0.22
2019-02-18T06:46:13.663Z,0.06
2019-02-18T06:48:44.896Z,0.39
2019-02-18T06:51:14.477Z,1.33
2019-02-18T06:53:44.129Z,2.08
2019-02-18T06:56:13.737Z,3.10
2019-02-18T06:58:46.763Z,4.04
2019-02-18T07:01:24.274Z,3.72
2019-02-18T07:03:55.491Z,4.30
2019-02-18T07:06:35.487Z,5.15
2019-02-18T07:09:22.979Z,6.02
2019-02-18T07:11:56.354Z,6.66
2019-02-18T07:14:26.372Z,6.58
2019-02-18T07:16:59.786Z,7.64
2019-02-18T07:19:32.885Z,7.74
2019-02-18T07:22:06.803Z,8.23
2019-02-18T07:24:37.143Z,8.98
2019-02-18T07:27:07.729Z,9.11
2019-02-18T07:29:39.060Z,8.80
2019-02-18T07:32:09.426Z,9.01
2019-02-18T07:34:39.038Z,9.53
2019-02-18T07:37:08.711Z,8.51
2019-02-18T07:39:41.936Z,9.00
2019-02-18T07:42:13.263Z,8.89
2019-02-18T07:44:45.403Z,8.85
2019-02-18T07:47:16.753Z,9.86
2019-02-18T07:49:47.137Z,10.06
2019-02-18T07:52:16.805Z,9.45
2019-02-18T07:54:46.905Z,10.71
2019-02-18T07:57:17.394Z,12.06
2019-02-18T07:59:47.952Z,11.62
2019-02-18T08:02:21.203Z,11.60
2019-02-18T08:04:51.765Z,12.37
2019-02-18T08:07:21.808Z,12.98
2019-02-18T08:09:53.204Z,14.46
2019-02-18T08:12:23.696Z,13.92
2019-02-18T08:14:56.549Z,14.08
2019-02-18T08:17:27.984Z,14.62
2019-02-18T08:19:58.708Z,14.71
2019-02-18T08:22:30.063Z,14.73
2019-02-18T08:25:00.052Z,15.45
2019-02-18T08:27:30.440Z,14.66
2019-02-18T08:30:03.154Z,14.11
2019-02-18T08:32:34.613Z,13.55
2019-02-18T08:35:05.455Z,12.90
2019-02-18T08:37:35.875Z,12.50
2019-02-18T08:40:06.192Z,12.80
2019-02-18T08:42:35.744Z,12.99
2019-02-18T08:45:06.771Z,12.18
2019-02-18T08:47:40.117Z,11.62
2019-02-18T08:50:12.499Z,11.68
2019-02-18T08:52:42.264Z,11.97
2019-02-18T08:55:15.838Z,11.77
2019-02-18T08:57:44.894Z,11.39
2019-02-18T09:02:52.625Z,12.05
2019-02-18T09:05:24.052Z,12.49
2019-02-18T09:07:54.132Z,12.98
2019-02-18T09:10:33.204Z,11.81
2019-02-18T09:12:58.009Z,11.11
2019-02-18T09:15:30.272Z,11.07
2019-02-18T09:18:01.043Z,11.40
2019-02-18T09:20:31.461Z,10.51
2019-02-18T09:23:05.903Z,10.29
2019-02-18T09:25:38.265Z,10.29
2019-02-18T09:28:08.136Z,10.59
2019-02-18T09:30:39.429Z,11.31
2019-02-18T09:33:09.218Z,9.81
2019-02-18T09:35:40.018Z,10.14
2019-02-18T09:38:23.768Z,10.07
2019-02-18T09:40:48.356Z,10.04
2019-02-18T09:43:16.184Z,10.55
2019-02-18T09:45:47.636Z,10.57
2019-02-18T09:48:18.961Z,10.93
2019-02-18T09:50:51.396Z,10.10
2019-02-18T09:53:20.656Z,10.01
2019-02-18T09:55:55.377Z,10.37
2019-02-18T09:58:28.288Z,10.13
2019-02-18T10:00:58.152Z,9.92
2019-02-18T10:03:32.100Z,10.40
2019-02-18T10:06:02.160Z,10.57
2019-02-18T10:08:33.012Z,10.75
2019-02-18T10:11:04.688Z,11.35
2019-02-18T10:13:34.741Z,11.21
2019-02-18T10:16:06.730Z,10.90
2019-02-18T10:18:36.800Z,11.02
2019-02-18T10:21:07.201Z,11.08
2019-02-18T10:23:38.040Z,10.96
2019-02-18T10:26:08.816Z,11.29
2019-02-18T10:28:38.633Z,11.15
2019-02-18T10:31:10.021Z,11.20
2019-02-18T10:33:39.121Z,11.46
2019-02-18T10:36:09.920Z,10.75
2019-02-18T10:38:40.319Z,11.10
2019-02-18T10:41:11.795Z,10.82
2019-02-18T10:43:43.118Z,10.96
2019-02-18T10:46:13.911Z,11.30
2019-02-18T10:48:42.870Z,11.04
2019-02-18T10:51:13.458Z,11.38
2019-02-18T10:53:44.883Z,11.26
2019-02-18T10:56:17.493Z,11.55
2019-02-18T10:58:49.968Z,11.72
2019-02-18T11:01:20.768Z,11.37
2019-02-18T11:03:52.132Z,11.51
2019-02-18T11:06:23.000Z,11.77
2019-02-18T11:08:52.657Z,11.94
2019-02-18T11:11:25.123Z,11.93
2019-02-18T11:13:54.864Z,11.69
2019-02-18T11:16:26.295Z,11.91
2019-02-18T11:18:59.838Z,12.03
2019-02-18T11:21:32.302Z,12.04
2019-02-18T11:24:01.352Z,11.28
2019-02-18T11:26:30.466Z,11.64
2019-02-18T11:29:01.807Z,11.51
2019-02-18T11:31:32.804Z,11.69
2019-02-18T11:34:03.639Z,11.67
2019-02-18T11:36:34.019Z,11.63
2019-02-18T11:39:05.125Z,11.77
2019-02-18T11:41:36.517Z,10.95
2019-02-18T11:44:09.741Z,11.23
2019-02-18T11:46:42.995Z,11.25
2019-02-18T11:49:13.919Z,11.99
2019-02-18T11:51:44.494Z,12.27
2019-02-18T11:54:17.029Z,11.44
2019-02-18T11:56:46.381Z,11.42
2019-02-18T11:59:24.203Z,11.26
2019-02-18T12:01:50.867Z,11.27
2019-02-18T12:04:22.184Z,11.41
2019-02-18T12:09:45.486Z,11.33
2019-02-18T12:12:16.782Z,11.32
2019-02-18T12:14:47.172Z,11.37
2019-02-18T12:17:20.843Z,11.79
2019-02-18T12:19:50.334Z,11.60
2019-02-18T12:22:20.193Z,11.20
2019-02-18T12:24:49.347Z,11.03
2019-02-18T12:27:19.823Z,11.30
2019-02-18T12:29:49.475Z,11.48
2019-02-18T12:32:19.998Z,11.72
2019-02-18T12:34:50.357Z,12.06
2019-02-18T12:37:19.429Z,12.44
2019-02-18T12:39:49.430Z,12.42
2019-02-18T12:42:20.511Z,11.90
2019-02-18T12:44:51.107Z,11.73
2019-02-18T12:47:21.586Z,11.53
2019-02-18T12:49:52.178Z,12.21
2019-02-18T12:52:22.465Z,12.08
2019-02-18T12:54:52.948Z,11.78
2019-02-18T12:57:23.630Z,11.66
2019-02-18T12:59:56.370Z,11.92
2019-02-18T13:02:27.782Z,11.70
2019-02-18T13:04:57.774Z,12.10
2019-02-18T13:07:28.527Z,12.18
2019-02-18T13:09:59.510Z,12.32
2019-02-18T13:12:29.888Z,12.53
2019-02-18T13:15:00.437Z,12.44
2019-02-18T13:17:30.521Z,12.39
2019-02-18T13:20:00.406Z,12.55
2019-02-18T13:22:31.780Z,12.70
2019-02-18T13:25:07.598Z,12.52
2019-02-18T13:27:39.770Z,12.57
2019-02-18T13:30:25.813Z,12.42
2019-02-18T13:32:56.624Z,12.29
2019-02-18T13:35:27.408Z,12.09
2019-02-18T13:37:58.638Z,12.23
2019-02-18T13:40:33.742Z,12.41
2019-02-18T13:43:04.495Z,12.62
2019-02-18T13:45:34.144Z,12.79
2019-02-18T13:48:05.556Z,13.07
2019-02-18T13:50:36.803Z,13.31
2019-02-18T13:53:06.144Z,13.34
2019-02-18T13:55:39.002Z,13.36
2019-02-18T13:58:10.925Z,12.97
2019-02-18T14:00:42.286Z,13.07
2019-02-18T14:03:15.540Z,13.21
2019-02-18T14:05:47.844Z,13.49
2019-02-18T14:08:18.624Z,13.53
2019-02-18T14:10:48.288Z,13.59
2019-02-18T14:13:17.925Z,13.66
2019-02-18T14:15:48.356Z,13.36
2019-02-18T14:18:19.134Z,13.24
2019-02-18T14:20:49.439Z,13.35
2019-02-18T14:23:18.447Z,13.26
2019-02-18T14:25:49.328Z,13.18
2019-02-18T14:28:19.715Z,13.10
2019-02-18T14:30:50.530Z,12.91
2019-02-18T14:33:21.011Z,12.91
2019-02-18T14:35:50.659Z,12.55
2019-02-18T14:38:21.333Z,12.72
2019-02-18T14:40:51.230Z,12.82
2019-02-18T14:43:21.411Z,12.72
2019-02-18T14:45:51.460Z,12.73
2019-02-18T14:48:23.566Z,12.71
2019-02-18T14:50:56.683Z,12.63
2019-02-18T14:53:24.101Z,12.58
2019-02-18T14:55:55.671Z,12.45
2019-02-18T14:58:25.515Z,12.53
2019-02-18T15:00:55.874Z,12.42
2019-02-18T15:03:26.305Z,12.45
2019-02-18T15:05:57.676Z,12.39
2019-02-18T15:08:30.036Z,12.21
2019-02-18T15:11:00.016Z,12.19
2019-02-18T15:13:31.153Z,12.13
2019-02-18T15:16:02.382Z,12.13
2019-02-18T15:18:34.283Z,12.20
2019-02-18T15:21:04.672Z,12.16
2019-02-18T15:23:36.118Z,12.10
2019-02-18T15:26:09.422Z,12.11
2019-02-18T15:28:39.265Z,12.09
2019-02-18T15:31:10.675Z,12.09
2019-02-18T15:33:40.494Z,12.03
2019-02-18T15:36:13.650Z,12.06
2019-02-18T15:38:45.326Z,12.04
2019-02-18T15:41:16.559Z,11.98
2019-02-18T15:43:47.426Z,11.92
2019-02-18T15:46:18.192Z,11.80
2019-02-18T15:48:49.579Z,11.80
2019-02-18T15:51:21.071Z,11.67
2019-02-18T15:53:54.318Z,11.61
2019-02-18T15:56:24.878Z,11.51
2019-02-18T15:58:54.704Z,11.37
2019-02-18T16:01:23.740Z,11.42
2019-02-18T16:03:52.642Z,11.31
2019-02-18T16:06:24.529Z,11.23
2019-02-18T16:08:54.175Z,11.16
2019-02-18T16:11:27.509Z,11.03
2019-02-18T16:13:58.191Z,11.00
2019-02-18T16:16:29.075Z,10.95
2019-02-18T16:19:00.434Z,10.85
2019-02-18T16:21:30.055Z,10.78
2019-02-18T16:23:59.141Z,10.64
2019-02-18T16:26:30.760Z,10.53
2019-02-18T16:29:02.127Z,10.45
2019-02-18T16:31:32.244Z,10.39
2019-02-18T16:36:36.791Z,10.26
2019-02-18T16:39:09.506Z,10.12
2019-02-18T16:41:39.188Z,10.01
2019-02-18T16:44:10.309Z,9.93
2019-02-18T16:46:39.936Z,9.82
2019-02-18T16:49:09.893Z,9.78
2019-02-18T16:51:39.567Z,9.71
2019-02-18T16:54:14.289Z,9.64
2019-02-18T16:56:45.422Z,9.51
2019-02-18T16:59:16.083Z,9.43
2019-02-18T17:01:47.476Z,9.33
2019-02-18T17:04:19.155Z,9.22
2019-02-18T17:06:50.499Z,9.13
2019-02-18T17:09:22.126Z,9.00
2019-02-18T17:11:52.110Z,8.89
2019-02-18T17:14:23.469Z,8.86
2019-02-18T17:16:53.086Z,8.82
2019-02-18T17:19:24.482Z,8.77
2019-02-18T17:21:54.116Z,8.72
2019-02-18T17:24:24.974Z,8.63
2019-02-18T17:26:57.104Z,8.51
2019-02-18T17:29:26.978Z,8.34
2019-02-18T17:31:58.420Z,8.20
2019-02-18T17:34:28.841Z,8.08
2019-02-18T17:37:01.822Z,8.00
2019-02-18T17:39:34.673Z,7.94
2019-02-18T17:42:03.777Z,7.88
2019-02-18T17:44:34.078Z,7.75
2019-02-18T17:47:03.167Z,7.65
2019-02-18T17:49:32.781Z,7.62
2019-02-18T17:52:01.365Z,7.56
2019-02-18T17:54:31.013Z,7.49
2019-02-18T17:56:59.281Z,7.39
2019-02-18T17:59:28.591Z,7.30
2019-02-18T18:01:59.342Z,7.23
2019-02-18T18:04:29.935Z,7.08
2019-02-18T18:07:00.614Z,7.01
2019-02-18T18:09:32.077Z,6.88
2019-02-18T18:12:04.781Z,6.80
2019-02-18T18:14:35.471Z,6.77
2019-02-18T18:17:06.787Z,6.72
2019-02-18T18:19:36.545Z,6.70
2019-02-18T18:22:07.759Z,6.66
2019-02-18T18:24:40.750Z,6.58
2019-02-18T18:27:15.439Z,6.51
2019-02-18T18:29:46.290Z,6.42
2019-02-18T18:32:16.750Z,6.39
2019-02-18T18:34:50.029Z,6.40
2019-02-18T18:37:22.926Z,6.26
2019-02-18T18:39:54.863Z,6.17
2019-02-18T18:42:26.489Z,6.18
2019-02-18T18:44:57.134Z,6.05
2019-02-18T18:47:26.751Z,5.96
2019-02-18T18:49:58.094Z,5.90
2019-02-18T18:52:28.659Z,5.78
2019-02-18T18:55:03.054Z,5.70
2019-02-18T18:57:33.391Z,5.65
2019-02-18T19:00:05.000Z,5.55
2019-02-18T19:02:35.242Z,5.47
2019-02-18T19:05:07.458Z,5.34
2019-02-18T19:07:39.086Z,5.23
2019-02-18T19:10:09.988Z,5.24
2019-02-18T19:12:39.093Z,5.30
2019-02-18T19:15:11.357Z,5.27
2019-02-18T19:17:44.045Z,5.27
2019-02-18T19:20:15.136Z,5.22
2019-02-18T19:22:43.722Z,5.13
2019-02-18T19:25:13.101Z,5.16
2019-02-18T19:27:42.880Z,5.22
2019-02-18T19:30:29.044Z,5.16
2019-02-18T19:32:59.311Z,5.10
2019-02-18T19:35:30.035Z,5.02
2019-02-18T19:38:01.935Z,4.98
2019-02-18T19:40:33.185Z,4.91
2019-02-18T19:43:05.792Z,4.88
2019-02-18T19:45:37.023Z,4.72
2019-02-18T19:48:10.123Z,4.63
2019-02-18T19:50:40.686Z,4.65
2019-02-18T19:53:11.950Z,4.58
2019-02-18T19:55:42.702Z,4.66
2019-02-18T19:58:15.950Z,4.72
2019-02-18T20:00:46.334Z,4.46
2019-02-18T20:03:19.887Z,4.31
2019-02-18T20:05:49.619Z,4.20
2019-02-18T20:08:20.686Z,4.24
2019-02-18T20:10:50.670Z,4.29
2019-02-18T20:13:19.774Z,4.30
2019-02-18T20:15:50.057Z,4.26
2019-02-18T20:18:19.093Z,4.25
2019-02-18T20:20:49.549Z,4.20
2019-02-18T20:23:19.043Z,4.18
2019-02-18T20:25:49.442Z,4.23
2019-02-18T20:28:23.147Z,4.09
2019-02-18T20:30:52.942Z,3.99
2019-02-18T20:33:22.975Z,4.00
2019-02-18T20:35:53.401Z,4.06
2019-02-18T20:38:25.010Z,4.00
2019-02-18T20:40:55.635Z,3.95
2019-02-18T20:43:25.959Z,3.91
2019-02-18T20:45:55.588Z,3.97
2019-02-18T20:48:25.728Z,3.96
2019-02-18T20:50:58.958Z,3.92
2019-02-18T20:53:31.239Z,3.85
2019-02-18T20:56:02.063Z,3.80
2019-02-18T20:58:36.730Z,3.79
2019-02-18T21:01:08.052Z,3.73
2019-02-18T21:03:38.873Z,3.67
2019-02-18T21:06:14.354Z,3.63
2019-02-18T21:08:47.181Z,3.64
2019-02-18T21:11:18.509Z,3.52
2019-02-18T21:13:49.775Z,3.47
2019-02-18T21:16:21.058Z,3.43
2019-02-18T21:18:53.327Z,3.44
2019-02-18T21:21:23.722Z,3.39
2019-02-18T21:23:54.118Z,3.32
2019-02-18T21:26:24.686Z,3.26
2019-02-18T21:28:54.722Z,3.20
2019-02-18T21:31:27.858Z,3.13
2019-02-18T21:33:58.163Z,3.09
2019-02-18T21:36:29.391Z,3.11
2019-02-18T21:39:00.677Z,3.04
2019-02-18T21:41:32.035Z,3.05
2019-02-18T21:46:37.775Z,3.06
2019-02-18T21:49:08.435Z,3.05
2019-02-18T21:51:37.474Z,3.03
2019-02-18T21:54:06.545Z,2.94
2019-02-18T21:56:35.614Z,2.85
2019-02-18T21:59:08.856Z,2.86
2019-02-18T22:01:38.500Z,2.80
2019-02-18T22:04:09.455Z,2.75
2019-02-18T22:06:38.572Z,2.72
2019-02-18T22:09:09.832Z,2.69
2019-02-18T22:11:42.318Z,2.69
2019-02-18T22:14:12.136Z,2.64
2019-02-18T22:16:44.481Z,2.70
2019-02-18T22:19:14.931Z,2.73
2019-02-18T22:21:45.782Z,2.73
2019-02-18T22:24:15.440Z,2.78
2019-02-18T22:26:46.058Z,2.76
2019-02-18T22:29:17.395Z,2.78
2019-02-18T22:31:50.606Z,2.77
2019-02-18T22:34:20.094Z,2.71
2019-02-18T22:36:50.952Z,2.67
2019-02-18T22:39:21.711Z,2.61
2019-02-18T22:41:52.129Z,2.55
2019-02-18T22:44:23.317Z,2.38
2019-02-18T22:46:54.286Z,2.27
2019-02-18T22:49:25.682Z,2.27
2019-02-18T22:51:56.478Z,2.30
2019-02-18T22:54:26.943Z,2.36
2019-02-18T22:56:58.144Z,2.38
2019-02-18T22:59:28.321Z,2.33
2019-02-18T23:02:00.049Z,2.34
2019-02-18T23:04:30.677Z,2.29
2019-02-18T23:07:00.522Z,2.29
2019-02-18T23:09:30.915Z,2.15
2019-02-18T23:12:01.709Z,2.17
2019-02-18T23:14:32.673Z,2.09
2019-02-18T23:17:05.862Z,2.08
2019-02-18T23:19:35.498Z,2.06
2019-02-18T23:22:08.335Z,2.08
2019-02-18T23:24:37.376Z,1.98
2019-02-18T23:27:08.559Z,1.98
2019-02-18T23:29:38.367Z,1.98
2019-02-18T23:32:09.710Z,2.00
2019-02-18T23:34:40.155Z,1.93
2019-02-18T23:37:10.467Z,1.85
2019-02-18T23:39:41.822Z,1.86
2019-02-18T23:42:11.460Z,1.87
2019-02-18T23:44:42.675Z,1.79
2019-02-18T23:47:15.443Z,1.84
2019-02-18T23:49:45.839Z,1.85
2019-02-18T23:52:16.622Z,1.87
2019-02-18T23:54:49.593Z,1.81
2019-02-18T23:57:19.466Z,1.78
2019-02-18T23:59:49.867Z,1.77
